createdAt,value
2022-12-01T00:01:23.551Z,77.20
2022-12-01T00:03:51.069Z,77.31
2022-12-01T00:06:20.548Z,77.70
2022-12-01T00:09:08.377Z,77.30
2022-12-01T00:11:37.040Z,77.56
2022-12-01T00:14:05.267Z,77.31
2022-12-01T00:16:33.002Z,77.44
2022-12-01T00:19:00.984Z,77.67
2022-12-01T00:21:28.532Z,76.36
2022-12-01T00:23:57.801Z,76.57
2022-12-01T00:26:27.547Z,76.65
2022-12-01T00:28:59.861Z,76.69
2022-12-01T00:31:28.072Z,76.76
2022-12-01T00:33:55.980Z,76.64
2022-12-01T00:36:24.080Z,76.93
2022-12-01T00:38:55.770Z,76.85
2022-12-01T00:41:25.281Z,77.08
2022-12-01T00:43:52.749Z,76.87
2022-12-01T00:46:20.514Z,77.28
2022-12-01T00:48:48.490Z,77.20
2022-12-01T00:51:18.930Z,76.92
2022-12-01T00:53:48.821Z,76.83
2022-12-01T00:56:17.447Z,77.42
2022-12-01T00:58:46.285Z,77.15
2022-12-01T01:01:14.021Z,77.18
2022-12-01T01:03:41.571Z,77.10
2022-12-01T01:06:13.270Z,77.14
2022-12-01T01:08:41.188Z,77.33
2022-12-01T01:11:09.102Z,77.41
2022-12-01T01:13:37.035Z,77.18
2022-12-01T01:16:05.358Z,77.36
2022-12-01T01:18:33.321Z,77.53
2022-12-01T01:21:06.612Z,77.59
2022-12-01T01:23:34.092Z,77.60
2022-12-01T01:26:10.008Z,77.21
2022-12-01T01:28:37.604Z,77.37
2022-12-01T01:31:06.826Z,77.75
2022-12-01T01:33:34.350Z,78.04
2022-12-01T01:36:02.421Z,77.55
2022-12-01T01:38:31.205Z,78.03
2022-12-01T01:40:58.326Z,78.01
2022-12-01T01:43:47.520Z,78.05
2022-12-01T01:46:16.316Z,78.17
2022-12-01T01:49:08.272Z,78.38
2022-12-01T01:51:46.388Z,78.56
2022-12-01T01:54:19.673Z,78.88
2022-12-01T01:56:49.527Z,78.35
2022-12-01T01:59:24.674Z,78.20
2022-12-01T02:02:00.621Z,78.26
2022-12-01T02:04:29.171Z,78.38
2022-12-01T02:06:56.246Z,78.47
2022-12-01T02:09:23.620Z,78.30
2022-12-01T02:12:11.593Z,78.42
2022-12-01T02:15:15.557Z,78.42
2022-12-01T02:18:20.205Z,78.33
2022-12-01T02:21:03.898Z,78.59
2022-12-01T02:23:33.852Z,78.15
2022-12-01T02:26:07.027Z,78.23
2022-12-01T02:28:55.648Z,78.45
2022-12-01T02:31:30.960Z,78.63
2022-12-01T02:34:10.589Z,78.53
2022-12-01T02:36:46.412Z,78.84
2022-12-01T02:39:27.556Z,78.76
2022-12-01T02:42:05.059Z,78.75
2022-12-01T02:44:42.889Z,78.79
2022-12-01T02:47:14.757Z,79.09
2022-12-01T02:49:48.185Z,78.98
2022-12-01T02:52:16.750Z,79.47
2022-12-01T02:54:45.432Z,79.37
2022-12-01T02:57:13.659Z,79.10
2022-12-01T02:59:43.607Z,79.58
2022-12-01T03:02:16.346Z,79.30
2022-12-01T03:05:10.198Z,79.10
2022-12-01T03:08:02.161Z,79.16
2022-12-01T03:10:45.270Z,79.49
2022-12-01T03:13:50.513Z,79.46
2022-12-01T03:16:57.301Z,79.46
2022-12-01T03:19:37.618Z,79.65
2022-12-01T03:22:14.228Z,79.66
2022-12-01T03:24:47.124Z,79.77
2022-12-01T03:27:18.792Z,79.74
2022-12-01T03:29:53.595Z,79.49
2022-12-01T03:32:52.205Z,79.96
2022-12-01T03:35:27.682Z,80.05
2022-12-01T03:38:00.150Z,80.10
2022-12-01T03:40:31.322Z,80.22
2022-12-01T03:43:10.557Z,80.11
2022-12-01T03:46:00.843Z,79.92
2022-12-01T03:48:29.973Z,80.11
2022-12-01T03:56:56.340Z,80.11
2022-12-01T03:59:27.011Z,79.81
2022-12-01T04:01:55.400Z,79.96
2022-12-01T04:04:22.434Z,80.34
2022-12-01T04:06:51.130Z,80.44
2022-12-01T04:09:18.231Z,80.18
2022-12-01T04:12:04.181Z,80.14
2022-12-01T04:14:31.300Z,80.52
2022-12-01T04:16:58.988Z,80.92
2022-12-01T04:19:26.189Z,80.71
2022-12-01T04:21:53.464Z,80.30
2022-12-01T04:24:20.698Z,80.10
2022-12-01T04:26:48.161Z,80.18
2022-12-01T04:29:15.227Z,80.29
2022-12-01T04:31:43.862Z,79.84
2022-12-01T04:34:11.370Z,80.15
2022-12-01T04:36:39.008Z,79.69
2022-12-01T04:39:06.009Z,79.84
2022-12-01T04:41:34.412Z,79.64
2022-12-01T04:44:01.453Z,79.83
2022-12-01T04:46:28.917Z,80.12
2022-12-01T04:48:57.089Z,79.82
2022-12-01T04:51:24.786Z,79.65
2022-12-01T04:53:52.580Z,79.82
2022-12-01T04:56:20.366Z,79.48
2022-12-01T04:58:48.986Z,79.45
2022-12-01T05:01:18.793Z,79.96
2022-12-01T05:03:49.884Z,80.21
2022-12-01T05:06:38.060Z,79.75
2022-12-01T05:09:05.971Z,79.78
2022-12-01T05:11:34.038Z,79.81
2022-12-01T05:14:01.615Z,79.37
2022-12-01T05:16:32.625Z,79.53
2022-12-01T05:19:19.654Z,79.23
2022-12-01T05:22:12.752Z,79.64
2022-12-01T05:24:40.195Z,79.43
2022-12-01T05:27:09.447Z,79.39
2022-12-01T05:29:37.055Z,79.25
2022-12-01T05:32:07.133Z,79.70
2022-12-01T05:34:34.043Z,79.50
2022-12-01T05:37:09.094Z,79.48
2022-12-01T05:39:49.577Z,79.62
2022-12-01T05:42:20.136Z,79.89
2022-12-01T05:44:50.036Z,79.62
2022-12-01T05:47:17.486Z,79.86
2022-12-01T05:49:49.536Z,79.48
2022-12-01T05:55:32.068Z,79.34
2022-12-01T06:01:11.036Z,78.95
2022-12-01T06:03:38.040Z,78.82
2022-12-01T06:06:21.540Z,78.84
2022-12-01T06:09:51.552Z,78.94
2022-12-01T06:12:37.859Z,79.11
2022-12-01T06:15:14.354Z,78.55
2022-12-01T06:17:42.802Z,78.28
2022-12-01T06:23:00.510Z,78.78
2022-12-01T06:25:30.574Z,78.45
2022-12-01T06:27:58.935Z,78.46
2022-12-01T06:30:26.713Z,78.33
2022-12-01T06:32:53.870Z,78.29
2022-12-01T06:35:21.601Z,78.52
2022-12-01T06:37:48.785Z,78.93
2022-12-01T06:40:16.567Z,78.09
2022-12-01T06:42:43.560Z,78.45
2022-12-01T06:45:11.428Z,78.25
2022-12-01T06:47:39.001Z,78.19
2022-12-01T06:50:08.939Z,78.04
2022-12-01T06:52:39.069Z,78.08
2022-12-01T06:55:22.054Z,78.16
2022-12-01T06:57:49.521Z,78.35
2022-12-01T07:00:17.594Z,78.02
2022-12-01T07:02:45.117Z,78.33
2022-12-01T07:05:12.467Z,78.35
2022-12-01T07:07:40.193Z,78.48
2022-12-01T07:10:12.569Z,78.25
2022-12-01T07:12:39.954Z,78.17
2022-12-01T07:15:09.462Z,77.94
2022-12-01T07:17:38.474Z,78.18
2022-12-01T07:20:10.871Z,77.63
2022-12-01T07:22:39.748Z,77.84
2022-12-01T07:25:07.520Z,77.41
2022-12-01T07:30:22.079Z,77.70
2022-12-01T07:32:52.497Z,77.10
2022-12-01T07:35:20.451Z,77.98
2022-12-01T07:37:47.615Z,77.85
2022-12-01T07:40:15.190Z,77.63
2022-12-01T07:42:42.528Z,77.63
2022-12-01T07:45:10.106Z,77.85
2022-12-01T07:47:37.399Z,77.54
2022-12-01T07:50:08.427Z,77.51
2022-12-01T07:52:35.998Z,77.82
2022-12-01T07:55:03.721Z,77.44
2022-12-01T08:00:15.747Z,77.83
2022-12-01T08:02:43.154Z,77.94
2022-12-01T08:05:11.031Z,77.74
2022-12-01T08:07:39.477Z,77.86
2022-12-01T08:10:21.600Z,78.55
2022-12-01T08:12:52.016Z,78.21
2022-12-01T08:15:21.622Z,78.21
2022-12-01T08:17:52.900Z,79.05
2022-12-01T08:20:23.996Z,78.96
2022-12-01T08:22:51.676Z,78.80
2022-12-01T08:25:19.876Z,78.71
2022-12-01T08:27:47.244Z,79.22
2022-12-01T08:30:16.839Z,79.24
2022-12-01T08:32:48.271Z,79.26
2022-12-01T08:35:15.504Z,80.08
2022-12-01T08:37:45.352Z,80.01
2022-12-01T08:40:15.828Z,79.91
2022-12-01T08:42:51.903Z,80.09
2022-12-01T08:45:24.255Z,80.01
2022-12-01T08:47:55.660Z,80.27
2022-12-01T08:50:25.036Z,80.56
2022-12-01T08:52:53.035Z,80.65
2022-12-01T08:55:22.577Z,80.40
2022-12-01T08:57:49.981Z,80.88
2022-12-01T09:00:18.214Z,80.99
2022-12-01T09:02:45.686Z,81.00
2022-12-01T09:05:12.917Z,80.92
2022-12-01T09:07:41.552Z,80.83
2022-12-01T09:13:09.930Z,81.36
2022-12-01T09:15:57.952Z,81.56
2022-12-01T09:18:25.557Z,81.96
2022-12-01T09:20:53.019Z,81.92
2022-12-01T09:23:21.800Z,82.25
2022-12-01T09:25:49.906Z,82.16
2022-12-01T09:31:11.140Z,82.75
2022-12-01T09:36:25.384Z,83.47
2022-12-01T09:38:53.145Z,83.78
2022-12-01T09:41:26.270Z,83.82
2022-12-01T09:44:05.836Z,83.70
2022-12-01T09:47:01.358Z,83.52
2022-12-01T09:50:14.305Z,83.86
2022-12-01T09:52:47.599Z,84.03
2022-12-01T09:55:17.952Z,83.98
2022-12-01T09:57:49.172Z,84.14
2022-12-01T10:00:26.254Z,84.60
2022-12-01T10:03:38.766Z,84.82
2022-12-01T10:06:43.990Z,85.40
2022-12-01T10:09:44.727Z,86.02
2022-12-01T10:12:32.475Z,85.98
2022-12-01T10:15:09.715Z,86.26
2022-12-01T10:18:01.961Z,86.26
2022-12-01T10:20:36.863Z,86.17
2022-12-01T10:23:25.648Z,86.22
2022-12-01T10:26:08.992Z,86.07
2022-12-01T10:28:39.249Z,86.29
2022-12-01T10:31:42.188Z,86.19
2022-12-01T10:37:01.906Z,86.17
2022-12-01T10:39:54.653Z,86.29
2022-12-01T10:45:26.024Z,86.11
2022-12-01T10:48:21.105Z,86.50
2022-12-01T10:50:55.847Z,86.43
2022-12-01T10:53:26.925Z,86.64
2022-12-01T10:56:13.314Z,86.62
2022-12-01T10:59:04.257Z,86.61
2022-12-01T11:01:35.856Z,86.59
2022-12-01T11:04:21.423Z,86.50
2022-12-01T11:06:50.473Z,86.12
2022-12-01T11:09:26.642Z,86.45
2022-12-01T11:12:00.175Z,86.31
2022-12-01T11:14:52.266Z,86.34
2022-12-01T11:20:40.540Z,86.10
2022-12-01T11:23:29.912Z,86.51
2022-12-01T11:26:15.900Z,86.23
2022-12-01T11:28:56.246Z,86.50
2022-12-01T11:31:37.929Z,87.11
2022-12-01T11:34:06.365Z,87.23
2022-12-01T11:36:43.242Z,87.29
2022-12-01T11:39:27.854Z,87.57
2022-12-01T11:41:57.888Z,87.77
2022-12-01T11:44:50.392Z,87.92
2022-12-01T11:47:24.593Z,88.05
2022-12-01T11:49:57.670Z,88.00
2022-12-01T11:52:30.748Z,87.90
2022-12-01T11:54:58.165Z,88.12
2022-12-01T11:57:35.617Z,88.16
2022-12-01T12:00:46.295Z,88.28
2022-12-01T12:03:19.955Z,88.67
2022-12-01T12:06:38.530Z,88.60
2022-12-01T12:09:03.768Z,89.00
2022-12-01T12:12:05.034Z,89.04
2022-12-01T12:14:48.700Z,89.34
2022-12-01T12:17:22.197Z,88.94
2022-12-01T12:20:11.047Z,89.05
2022-12-01T12:22:57.495Z,89.30
2022-12-01T12:25:27.247Z,88.86
2022-12-01T12:28:25.420Z,89.07
2022-12-01T12:31:21.932Z,89.15
2022-12-01T12:34:08.081Z,89.11
2022-12-01T12:36:50.755Z,89.32
2022-12-01T12:39:19.459Z,89.44
2022-12-01T12:42:00.875Z,89.96
2022-12-01T12:44:53.992Z,89.85
2022-12-01T12:48:09.269Z,89.98
2022-12-01T12:50:58.479Z,90.02
2022-12-01T12:53:32.090Z,90.03
2022-12-01T12:56:40.747Z,89.23
2022-12-01T12:59:21.084Z,89.56
2022-12-01T13:01:54.589Z,89.72
2022-12-01T13:04:26.997Z,89.65
2022-12-01T13:07:08.784Z,89.32
2022-12-01T13:09:50.387Z,89.11
2022-12-01T13:12:35.348Z,89.50
2022-12-01T13:15:15.491Z,89.34
2022-12-01T13:17:51.764Z,89.27
2022-12-01T13:20:23.082Z,89.14
2022-12-01T13:22:52.797Z,88.92
2022-12-01T13:25:38.453Z,89.29
2022-12-01T13:28:17.548Z,89.32
2022-12-01T13:31:07.388Z,88.64
2022-12-01T13:33:38.808Z,89.20
2022-12-01T13:39:28.801Z,88.43
2022-12-01T13:42:23.743Z,88.66
2022-12-01T13:45:03.833Z,88.50
2022-12-01T13:47:54.423Z,88.80
2022-12-01T13:50:43.940Z,88.16
2022-12-01T13:53:19.885Z,88.18
2022-12-01T13:55:59.610Z,88.43
2022-12-01T13:58:32.798Z,87.73
2022-12-01T14:01:22.109Z,87.88
2022-12-01T14:07:24.334Z,87.36
2022-12-01T14:09:56.233Z,87.03
2022-12-01T14:12:33.177Z,87.16
2022-12-01T14:15:29.417Z,86.94
2022-12-01T14:18:23.053Z,86.69
2022-12-01T14:20:50.577Z,87.04
2022-12-01T14:23:33.357Z,86.95
2022-12-01T14:26:34.802Z,86.73
2022-12-01T14:29:02.272Z,86.36
2022-12-01T14:31:35.482Z,86.67
2022-12-01T14:34:20.083Z,86.23
2022-12-01T14:37:09.709Z,85.90
2022-12-01T14:39:47.734Z,86.18
2022-12-01T14:42:40.291Z,85.65
2022-12-01T14:45:12.692Z,85.52
2022-12-01T14:47:44.987Z,85.22
2022-12-01T14:50:21.085Z,85.32
2022-12-01T14:53:04.763Z,84.59
2022-12-01T14:55:40.025Z,84.91
2022-12-01T14:58:20.012Z,84.39
2022-12-01T15:01:03.622Z,84.02
2022-12-01T15:03:41.038Z,83.73
2022-12-01T15:06:16.164Z,83.91
2022-12-01T15:09:04.158Z,83.71
2022-12-01T15:11:34.113Z,83.35
2022-12-01T15:14:01.167Z,83.43
2022-12-01T15:16:31.046Z,83.21
2022-12-01T15:18:58.283Z,82.82
2022-12-01T15:21:31.372Z,82.85
2022-12-01T15:24:09.572Z,83.18
2022-12-01T15:26:49.812Z,82.70
2022-12-01T15:29:26.362Z,82.31
2022-12-01T15:32:01.729Z,82.52
2022-12-01T15:34:43.039Z,82.70
2022-12-01T15:37:18.935Z,82.80
2022-12-01T15:40:43.007Z,83.09
2022-12-01T15:43:15.392Z,82.52
2022-12-01T15:48:43.571Z,82.59
2022-12-01T15:51:16.858Z,82.17
2022-12-01T15:53:54.121Z,81.88
2022-12-01T15:56:31.934Z,82.33
2022-12-01T15:59:16.319Z,82.40
2022-12-01T16:01:45.044Z,82.13
2022-12-01T16:04:23.230Z,82.17
2022-12-01T16:07:01.670Z,82.08
2022-12-01T16:09:40.743Z,81.55
2022-12-01T16:12:23.987Z,81.64
2022-12-01T16:15:01.008Z,81.76
2022-12-01T16:17:43.812Z,81.35
2022-12-01T16:20:38.267Z,81.57
2022-12-01T16:23:16.191Z,81.47
2022-12-01T16:25:51.582Z,81.48
2022-12-01T16:28:24.651Z,80.81
2022-12-01T16:31:00.439Z,81.01
2022-12-01T16:33:36.243Z,81.16
2022-12-01T16:36:08.590Z,81.09
2022-12-01T16:38:37.882Z,80.81
2022-12-01T16:41:17.948Z,80.53
2022-12-01T16:44:05.480Z,80.70
2022-12-01T16:46:32.433Z,80.56
2022-12-01T16:49:05.398Z,81.09
2022-12-01T16:51:54.917Z,80.91
2022-12-01T16:54:23.917Z,80.75
2022-12-01T16:56:51.427Z,80.69
2022-12-01T16:59:20.994Z,80.60
2022-12-01T17:04:53.131Z,80.47
2022-12-01T17:07:21.177Z,80.91
2022-12-01T17:09:51.978Z,80.69
2022-12-01T17:12:26.474Z,80.79
2022-12-01T17:14:53.952Z,80.59
2022-12-01T17:17:21.340Z,80.92
2022-12-01T17:19:54.639Z,81.14
2022-12-01T17:22:23.005Z,80.64
2022-12-01T17:24:51.689Z,80.67
2022-12-01T17:27:22.195Z,80.96
2022-12-01T17:29:51.620Z,80.22
2022-12-01T17:32:21.290Z,80.29
2022-12-01T17:34:49.503Z,80.33
2022-12-01T17:37:20.862Z,80.34
2022-12-01T17:39:50.517Z,80.00
2022-12-01T17:42:20.542Z,80.28
2022-12-01T17:47:32.278Z,80.65
2022-12-01T17:49:59.650Z,80.57
2022-12-01T17:52:28.650Z,79.99
2022-12-01T17:54:56.619Z,80.51
2022-12-01T17:57:24.219Z,80.66
2022-12-01T17:59:51.553Z,80.31
2022-12-01T18:02:18.752Z,80.19
2022-12-01T18:04:46.226Z,80.00
2022-12-01T18:07:14.664Z,80.40
2022-12-01T18:09:42.281Z,80.64
2022-12-01T18:12:09.496Z,80.00
2022-12-01T18:14:37.717Z,79.95
2022-12-01T18:17:08.124Z,79.48
2022-12-01T18:19:36.098Z,79.42
2022-12-01T18:22:04.614Z,79.62
2022-12-01T18:24:32.322Z,79.99
2022-12-01T18:27:07.834Z,79.81
2022-12-01T18:29:38.014Z,79.66
2022-12-01T18:32:17.913Z,80.24
2022-12-01T18:35:31.561Z,79.92
2022-12-01T18:38:29.186Z,79.64
2022-12-01T18:41:02.342Z,79.72
2022-12-01T18:43:31.009Z,79.88
2022-12-01T18:45:59.505Z,79.58
2022-12-01T18:48:27.247Z,80.70
2022-12-01T18:50:59.638Z,80.93
2022-12-01T18:53:26.800Z,80.93
2022-12-01T18:55:54.501Z,81.00
2022-12-01T18:58:24.037Z,80.52
2022-12-01T19:00:51.409Z,80.31
2022-12-01T19:03:18.633Z,80.05
2022-12-01T19:05:47.016Z,80.43
2022-12-01T19:08:14.170Z,80.61
2022-12-01T19:10:41.666Z,80.07
2022-12-01T19:13:11.397Z,80.16
2022-12-01T19:15:38.969Z,80.23
2022-12-01T19:18:06.941Z,80.11
2022-12-01T19:20:39.004Z,80.16
2022-12-01T19:23:06.849Z,80.24
2022-12-01T19:25:36.915Z,79.91
2022-12-01T19:28:09.796Z,79.92
2022-12-01T19:30:37.208Z,80.38
2022-12-01T19:33:04.580Z,80.09
2022-12-01T19:35:36.347Z,80.01
2022-12-01T19:38:03.473Z,79.84
2022-12-01T19:40:45.078Z,80.03
2022-12-01T19:43:14.514Z,79.26
2022-12-01T19:45:44.548Z,79.69
2022-12-01T19:48:13.549Z,79.34
2022-12-01T19:50:41.078Z,78.96
2022-12-01T19:53:08.266Z,78.66
2022-12-01T19:55:41.787Z,79.03
2022-12-01T19:58:10.204Z,79.34
2022-12-01T20:00:37.797Z,79.74
2022-12-01T20:03:04.826Z,79.51
2022-12-01T20:05:33.921Z,79.37
2022-12-01T20:08:02.288Z,78.96
2022-12-01T20:10:29.807Z,78.65
2022-12-01T20:12:59.806Z,79.05
2022-12-01T20:15:27.289Z,79.38
2022-12-01T20:17:55.461Z,79.45
2022-12-01T20:20:42.811Z,79.13
2022-12-01T20:23:09.980Z,79.45
2022-12-01T20:25:37.518Z,79.22
2022-12-01T20:28:04.733Z,79.02
2022-12-01T20:30:32.137Z,79.41
2022-12-01T20:33:02.059Z,79.30
2022-12-01T20:39:19.639Z,79.18
2022-12-01T20:44:29.430Z,79.98
2022-12-01T20:47:29.194Z,79.91
2022-12-01T20:49:58.451Z,79.63
2022-12-01T20:52:26.834Z,80.27
2022-12-01T20:54:53.914Z,80.08
2022-12-01T20:57:21.428Z,80.43
2022-12-01T20:59:48.796Z,80.05
2022-12-01T21:02:16.268Z,80.69
2022-12-01T21:04:43.318Z,80.83
2022-12-01T21:07:10.804Z,80.45
2022-12-01T21:09:37.912Z,80.43
2022-12-01T21:16:00.082Z,80.16
2022-12-01T21:18:48.822Z,80.36
2022-12-01T21:21:24.476Z,80.15
2022-12-01T21:24:20.148Z,80.04
2022-12-01T21:26:58.939Z,80.23
2022-12-01T21:29:33.632Z,81.30
2022-12-01T21:32:03.174Z,80.67
2022-12-01T21:34:39.757Z,80.61
2022-12-01T21:37:15.154Z,80.53
2022-12-01T21:39:42.725Z,80.12
2022-12-01T21:42:30.693Z,80.11
2022-12-01T21:44:58.425Z,80.43
2022-12-01T21:47:30.768Z,80.30
2022-12-01T21:50:02.486Z,80.27
2022-12-01T21:52:55.548Z,80.55
2022-12-01T21:55:25.120Z,80.23
2022-12-01T21:57:53.821Z,80.38
2022-12-01T22:00:27.142Z,80.44
2022-12-01T22:03:00.391Z,80.25
2022-12-01T22:05:40.589Z,80.67
2022-12-01T22:08:37.683Z,80.57
2022-12-01T22:11:22.592Z,80.36
2022-12-01T22:14:11.027Z,80.80
2022-12-01T22:16:53.430Z,80.65
2022-12-01T22:19:27.863Z,80.75
2022-12-01T22:22:01.041Z,80.78
2022-12-01T22:24:34.456Z,80.63
2022-12-01T22:27:30.532Z,80.67
2022-12-01T22:30:08.299Z,81.09
2022-12-01T22:33:03.737Z,81.31
2022-12-01T22:35:49.262Z,81.29
2022-12-01T22:38:38.892Z,81.09
2022-12-01T22:41:14.946Z,81.52
2022-12-01T22:43:47.511Z,81.60
2022-12-01T22:46:29.670Z,81.04
2022-12-01T22:49:06.115Z,81.49
2022-12-01T22:52:02.801Z,81.66
2022-12-01T22:54:34.592Z,81.71
2022-12-01T22:57:10.029Z,82.02
2022-12-01T22:59:44.804Z,81.79
2022-12-01T23:02:14.342Z,82.30
2022-12-01T23:07:33.000Z,82.05
2022-12-01T23:10:18.813Z,82.40
2022-12-01T23:12:48.404Z,82.73
2022-12-01T23:15:32.937Z,82.16
2022-12-01T23:18:15.291Z,82.34
2022-12-01T23:20:54.276Z,82.41
2022-12-01T23:23:26.528Z,82.21
2022-12-01T23:25:56.715Z,82.41
2022-12-01T23:28:24.556Z,81.98
2022-12-01T23:30:55.108Z,82.34
2022-12-01T23:33:25.400Z,82.19
2022-12-01T23:35:55.114Z,82.41
2022-12-01T23:38:26.320Z,82.25
2022-12-01T23:40:57.413Z,82.29
2022-12-01T23:43:33.260Z,82.33
2022-12-01T23:46:17.890Z,82.73
2022-12-01T23:48:49.136Z,82.70
2022-12-01T23:51:23.056Z,82.36
2022-12-01T23:53:55.644Z,82.19
2022-12-01T23:56:28.106Z,82.19
2022-12-01T23:58:57.441Z,82.32
